createdAt,value
2023-03-04T00:00:31.268Z,13.39
2023-03-04T00:01:31.239Z,14.47
2023-03-04T00:02:31.280Z,13.75
2023-03-04T00:03:31.294Z,14.18
2023-03-04T00:04:31.294Z,12.22
2023-03-04T00:05:31.307Z,13.94
2023-03-04T00:06:31.324Z,13.50
2023-03-04T00:07:31.342Z,13.12
2023-03-04T00:08:31.352Z,14.12
2023-03-04T00:09:31.362Z,13.64
2023-03-04T00:10:31.400Z,14.09
2023-03-04T00:11:31.384Z,12.45
2023-03-04T00:12:31.440Z,14.21
2023-03-04T00:13:31.397Z,13.99
2023-03-04T00:14:31.438Z,13.20
2023-03-04T00:15:31.446Z,14.90
2023-03-04T00:16:31.509Z,12.36
2023-03-04T00:17:31.463Z,12.85
2023-03-04T00:18:31.513Z,13.80
2023-03-04T00:19:31.488Z,13.44
2023-03-04T00:20:31.499Z,13.22
2023-03-04T00:21:31.522Z,13.36
2023-03-04T00:22:31.519Z,14.06
2023-03-04T00:23:31.542Z,13.58
2023-03-04T00:24:31.521Z,15.21
2023-03-04T00:25:31.562Z,13.40
2023-03-04T00:26:31.584Z,14.31
2023-03-04T00:27:31.600Z,13.53
2023-03-04T00:28:31.621Z,14.05
2023-03-04T00:29:31.624Z,14.01
2023-03-04T00:30:31.599Z,14.03
2023-03-04T00:31:31.640Z,13.23
2023-03-04T00:32:31.690Z,13.75
2023-03-04T00:33:31.668Z,12.44
2023-03-04T00:34:32.874Z,13.69
2023-03-04T00:35:31.667Z,12.80
2023-03-04T00:36:31.680Z,14.00
2023-03-04T00:37:31.717Z,13.07
2023-03-04T00:38:31.701Z,12.25
2023-03-04T00:39:31.727Z,12.72
2023-03-04T00:40:31.702Z,13.39
2023-03-04T00:41:31.755Z,12.79
2023-03-04T00:42:31.731Z,13.82
2023-03-04T00:43:31.767Z,12.43
2023-03-04T00:44:31.765Z,12.99
2023-03-04T00:45:31.761Z,12.66
2023-03-04T00:46:31.791Z,13.21
2023-03-04T00:47:31.794Z,12.93
2023-03-04T00:48:31.829Z,13.08
2023-03-04T00:49:31.806Z,12.81
2023-03-04T00:50:31.815Z,12.72
2023-03-04T00:51:31.808Z,13.33
2023-03-04T00:52:31.827Z,13.49
2023-03-04T00:53:31.849Z,13.10
2023-03-04T00:54:31.847Z,13.64
2023-03-04T00:55:31.865Z,13.06
2023-03-04T00:56:31.872Z,13.32
2023-03-04T00:57:31.844Z,13.75
2023-03-04T00:58:31.862Z,12.58
2023-03-04T00:59:31.852Z,13.35
2023-03-04T01:00:31.871Z,13.18
2023-03-04T01:01:31.920Z,12.79
2023-03-04T01:02:31.965Z,14.21
2023-03-04T01:03:31.895Z,12.88
2023-03-04T01:04:31.917Z,12.83
2023-03-04T01:05:31.945Z,12.83
2023-03-04T01:06:31.928Z,12.61
2023-03-04T01:07:31.949Z,12.52
2023-03-04T01:08:31.991Z,12.33
2023-03-04T01:09:31.944Z,12.86
2023-03-04T01:10:31.948Z,11.92
2023-03-04T01:11:31.991Z,12.32
2023-03-04T01:12:31.942Z,12.50
2023-03-04T01:13:32.004Z,13.25
2023-03-04T01:14:32.008Z,12.42
2023-03-04T01:15:32.027Z,13.81
2023-03-04T01:16:32.044Z,13.08
2023-03-04T01:17:32.066Z,13.24
2023-03-04T01:18:32.073Z,13.55
2023-03-04T01:19:32.062Z,12.79
2023-03-04T01:20:32.076Z,12.68
2023-03-04T01:21:32.085Z,13.25
2023-03-04T01:22:32.069Z,11.91
2023-03-04T01:23:32.110Z,12.26
2023-03-04T01:24:32.104Z,13.55
2023-03-04T01:25:32.134Z,12.50
2023-03-04T01:26:32.130Z,13.07
2023-03-04T01:27:32.135Z,13.03
2023-03-04T01:28:32.149Z,12.96
2023-03-04T01:29:32.150Z,12.11
2023-03-04T01:30:32.200Z,12.80
2023-03-04T01:31:32.193Z,13.16
2023-03-04T01:32:32.222Z,13.04
2023-03-04T01:33:32.207Z,12.36
2023-03-04T01:34:32.179Z,12.55
2023-03-04T01:35:32.192Z,12.56
2023-03-04T01:36:32.271Z,12.77
2023-03-04T01:37:32.229Z,13.26
2023-03-04T01:38:32.241Z,12.01
2023-03-04T01:39:32.208Z,12.86
2023-03-04T01:40:32.222Z,13.07
2023-03-04T01:41:32.227Z,12.21
2023-03-04T01:42:32.229Z,12.30
2023-03-04T01:43:32.249Z,11.94
2023-03-04T01:44:32.247Z,12.67
2023-03-04T01:45:32.249Z,13.50
2023-03-04T01:46:32.310Z,12.47
2023-03-04T01:47:32.314Z,12.30
2023-03-04T01:49:32.331Z,13.49
2023-03-04T01:50:32.313Z,12.93
2023-03-04T01:51:32.329Z,12.76
2023-03-04T01:52:32.370Z,12.93
2023-03-04T01:53:32.375Z,12.40
2023-03-04T01:54:32.379Z,13.13
2023-03-04T01:55:32.353Z,12.85
2023-03-04T01:56:32.397Z,12.88
2023-03-04T01:57:32.404Z,12.88
2023-03-04T01:58:32.428Z,12.95
2023-03-04T01:59:32.421Z,12.71
2023-03-04T02:00:32.470Z,12.63
2023-03-04T02:01:32.459Z,13.33
2023-03-04T02:02:32.425Z,13.32
2023-03-04T02:03:32.433Z,11.64
2023-03-04T02:04:32.489Z,11.73
2023-03-04T02:05:32.470Z,13.18
2023-03-04T02:06:32.465Z,12.12
2023-03-04T02:07:32.470Z,12.88
2023-03-04T02:08:32.512Z,13.57
2023-03-04T02:09:32.532Z,11.96
2023-03-04T02:10:32.518Z,12.12
2023-03-04T02:11:32.517Z,12.91
2023-03-04T02:12:32.548Z,13.30
2023-03-04T02:13:32.568Z,12.08
2023-03-04T02:14:32.567Z,12.81
2023-03-04T02:15:32.561Z,12.84
2023-03-04T02:16:32.553Z,12.38
2023-03-04T02:17:32.585Z,13.14
2023-03-04T02:18:32.545Z,13.17
2023-03-04T02:19:32.601Z,13.10
2023-03-04T02:20:32.595Z,12.47
2023-03-04T02:21:32.575Z,12.26
2023-03-04T02:22:32.626Z,11.67
2023-03-04T02:23:32.629Z,12.12
2023-03-04T02:24:32.633Z,11.69
2023-03-04T02:25:32.616Z,13.05
2023-03-04T02:26:32.639Z,12.11
2023-03-04T02:27:32.643Z,11.48
2023-03-04T02:28:32.670Z,11.76
2023-03-04T02:29:32.651Z,13.04
2023-03-04T02:30:32.681Z,12.56
2023-03-04T02:31:32.769Z,13.38
2023-03-04T02:32:32.748Z,12.30
2023-03-04T03:00:32.963Z,13.45
2023-03-04T03:01:32.968Z,12.03
2023-03-04T06:05:36.030Z,12.29
2023-03-04T06:06:36.042Z,13.11
2023-03-04T06:07:36.058Z,12.72
2023-03-04T06:08:36.024Z,11.43
2023-03-04T06:09:36.079Z,12.42
2023-03-04T06:10:36.038Z,12.11
2023-03-04T06:11:36.514Z,12.15
2023-03-04T06:12:36.086Z,12.82
2023-03-04T06:13:36.073Z,12.92
2023-03-04T06:14:36.112Z,12.68
2023-03-04T06:15:36.095Z,11.16
2023-03-04T06:16:36.115Z,12.75
2023-03-04T06:17:36.120Z,12.66
2023-03-04T06:18:36.161Z,11.66
2023-03-04T06:19:36.142Z,11.37
2023-03-04T06:20:36.153Z,12.35
2023-03-04T06:21:36.173Z,11.94
2023-03-04T06:22:36.213Z,12.55
2023-03-04T06:23:36.187Z,11.60
2023-03-04T06:24:36.207Z,12.14
2023-03-04T06:25:36.196Z,12.09
2023-03-04T06:26:36.231Z,11.93
2023-03-04T06:27:36.221Z,12.79
2023-03-04T06:28:36.249Z,12.16
2023-03-04T06:29:36.256Z,11.86
2023-03-04T06:30:36.240Z,12.73
2023-03-04T06:31:36.317Z,11.39
2023-03-04T06:32:36.271Z,11.97
2023-03-04T06:33:36.230Z,12.51
2023-03-04T06:34:36.281Z,12.30
2023-03-04T06:35:36.264Z,12.57
2023-03-04T06:36:36.284Z,11.73
2023-03-04T06:37:36.276Z,11.97
2023-03-04T06:38:36.244Z,11.76
2023-03-04T06:39:36.264Z,10.99
2023-03-04T06:40:36.275Z,12.58
2023-03-04T06:41:36.247Z,12.51
2023-03-04T06:42:36.293Z,11.08
2023-03-04T06:44:36.307Z,12.33
2023-03-04T06:45:36.310Z,11.56
2023-03-04T07:27:37.872Z,11.91
2023-03-04T07:28:37.889Z,11.88
2023-03-04T07:29:37.949Z,11.87
2023-03-04T07:30:37.995Z,11.65
2023-03-04T07:31:38.048Z,11.51
2023-03-04T07:32:38.076Z,10.55
2023-03-04T07:33:38.041Z,10.82
2023-03-04T07:34:38.113Z,11.75
2023-03-04T07:35:38.177Z,11.53
2023-03-04T07:36:38.165Z,11.76
2023-03-04T07:37:38.189Z,11.65
2023-03-04T07:38:38.252Z,12.51
2023-03-04T07:39:38.246Z,11.11
2023-03-04T07:40:38.265Z,10.74
2023-03-04T07:41:38.291Z,11.89
2023-03-04T07:42:38.317Z,12.06
2023-03-04T07:43:38.346Z,11.06
2023-03-04T07:44:38.363Z,11.69
2023-03-04T07:45:38.439Z,10.80
2023-03-04T07:46:38.400Z,11.73
2023-03-04T07:47:38.418Z,12.07
2023-03-04T07:48:38.434Z,10.52
2023-03-04T07:49:38.468Z,11.70
2023-03-04T07:50:38.422Z,11.92
2023-03-04T07:51:38.446Z,12.01
2023-03-04T07:52:38.452Z,11.33
2023-03-04T07:53:38.472Z,11.28
2023-03-04T07:54:38.471Z,11.19
2023-03-04T07:55:38.498Z,11.87
2023-03-04T07:56:38.562Z,11.53
2023-03-04T07:57:38.573Z,10.95
2023-03-04T07:58:38.614Z,11.51
2023-03-04T07:59:38.645Z,10.29
2023-03-04T08:00:38.723Z,10.40
2023-03-04T08:01:38.785Z,10.72
2023-03-04T08:02:38.842Z,11.33
2023-03-04T08:03:38.884Z,11.34
2023-03-04T08:04:38.956Z,10.75
2023-03-04T08:05:39.013Z,11.05
2023-03-04T08:06:39.028Z,11.28
2023-03-04T08:07:39.111Z,11.31
2023-03-04T08:08:39.145Z,10.97
2023-03-04T08:09:39.229Z,11.21
2023-03-04T08:10:39.278Z,11.67
2023-03-04T08:11:39.315Z,10.54
2023-03-04T08:12:39.390Z,10.25
2023-03-04T08:13:39.455Z,10.53
2023-03-04T08:14:39.490Z,10.36
2023-03-04T08:15:39.567Z,10.01
2023-03-04T08:16:39.638Z,10.81
2023-03-04T08:17:39.670Z,10.28
2023-03-04T08:18:39.778Z,10.45
2023-03-04T11:08:47.909Z,7.27
2023-03-04T11:09:47.904Z,7.18
2023-03-04T11:10:47.983Z,7.24
2023-03-04T11:11:48.015Z,7.68
2023-03-04T11:12:48.058Z,7.35
2023-03-04T11:13:48.114Z,7.82
2023-03-04T11:14:48.178Z,7.69
2023-03-04T11:15:48.221Z,7.80
2023-03-04T11:16:48.307Z,7.99
2023-03-04T11:17:48.372Z,8.13
2023-03-04T11:18:48.420Z,7.45
2023-03-04T11:19:48.446Z,7.97
2023-03-04T11:20:48.512Z,7.42
2023-03-04T11:21:48.555Z,7.70
2023-03-04T11:22:48.619Z,7.72
2023-03-04T11:23:48.653Z,7.77
2023-03-04T11:24:48.718Z,7.77
2023-03-04T11:25:48.773Z,7.53
2023-03-04T11:26:49.593Z,7.38
2023-03-04T11:27:48.871Z,7.89
2023-03-04T11:28:48.949Z,8.70
2023-03-04T11:29:48.993Z,7.35
2023-03-04T11:30:49.038Z,7.33
2023-03-04T11:31:49.181Z,7.73
2023-03-04T11:32:49.216Z,7.20
2023-03-04T11:33:49.232Z,7.09
2023-03-04T11:34:49.239Z,7.00
2023-03-04T11:35:49.378Z,8.41
2023-03-04T11:36:49.361Z,7.28
2023-03-04T11:37:49.438Z,8.01
2023-03-04T11:38:49.507Z,7.65
2023-03-04T11:39:49.547Z,6.91
2023-03-04T11:40:49.609Z,8.37
2023-03-04T11:41:49.681Z,7.96
2023-03-04T11:42:49.781Z,7.52
2023-03-04T11:43:49.856Z,7.14
2023-03-04T11:44:49.874Z,7.94
2023-03-04T11:46:50.022Z,7.06
2023-03-04T15:23:56.714Z,4.66
2023-03-04T15:24:56.739Z,4.33
2023-03-04T15:25:56.732Z,4.17
2023-03-04T15:26:56.727Z,4.28
2023-03-04T15:27:56.790Z,4.04
2023-03-04T15:28:56.794Z,3.77
2023-03-04T15:29:56.805Z,4.26
2023-03-04T15:30:56.889Z,4.94
2023-03-04T15:31:56.870Z,4.34
2023-03-04T15:32:56.877Z,3.58
2023-03-04T15:33:56.879Z,4.48
2023-03-04T15:34:56.913Z,4.87
2023-03-04T15:35:57.048Z,4.32
2023-03-04T15:36:56.962Z,4.85
2023-03-04T15:37:57.017Z,4.36
2023-03-04T15:38:56.997Z,4.34
2023-03-04T15:39:57.062Z,4.17
2023-03-04T15:40:57.051Z,4.44
2023-03-04T15:41:57.053Z,4.10
2023-03-04T15:42:57.105Z,4.00
2023-03-04T15:43:57.135Z,4.04
2023-03-04T15:44:57.110Z,4.58
2023-03-04T15:45:57.209Z,4.46
2023-03-04T15:46:57.201Z,5.02
2023-03-04T15:51:57.326Z,4.41
2023-03-04T15:52:57.353Z,4.55
2023-03-04T15:53:57.369Z,5.02
2023-03-04T15:54:57.439Z,4.42
2023-03-04T15:55:57.442Z,4.86
2023-03-04T15:56:57.505Z,5.29
2023-03-04T15:57:57.500Z,4.66
2023-03-04T15:58:57.539Z,4.88
2023-03-04T15:59:57.551Z,6.16
2023-03-04T16:00:57.666Z,5.04
2023-03-04T16:01:57.619Z,5.28
2023-03-04T16:08:57.874Z,5.08
2023-03-04T16:09:57.876Z,4.94
2023-03-04T16:10:57.963Z,5.41
2023-03-04T16:11:57.979Z,4.86
2023-03-04T16:12:58.017Z,4.87
2023-03-04T16:13:58.035Z,5.06
2023-03-04T16:14:58.086Z,4.65
2023-03-04T16:15:58.140Z,4.81
2023-03-04T16:16:58.166Z,4.86
2023-03-04T16:17:58.201Z,5.35
2023-03-04T16:18:58.214Z,4.92
2023-03-04T16:19:58.282Z,5.11
2023-03-04T16:20:58.317Z,4.79
2023-03-04T16:21:58.382Z,5.36
2023-03-04T16:22:58.424Z,5.13
2023-03-04T16:23:58.432Z,5.19
2023-03-04T16:24:58.482Z,5.36
2023-03-04T16:25:58.561Z,4.84
2023-03-04T16:26:58.550Z,4.59
2023-03-04T16:27:58.578Z,5.05
2023-03-04T16:28:58.639Z,5.28
2023-03-04T16:29:58.693Z,5.14
2023-03-04T16:30:58.742Z,5.32
2023-03-04T16:31:58.825Z,5.34
2023-03-04T16:32:58.818Z,5.55
2023-03-04T16:33:58.880Z,4.97
2023-03-04T16:34:58.902Z,5.33
2023-03-04T16:35:59.079Z,4.89
2023-03-04T16:36:59.021Z,5.15
2023-03-04T16:37:59.047Z,5.10
2023-03-04T16:38:59.140Z,5.31
2023-03-04T16:39:59.170Z,5.55
2023-03-04T16:40:59.228Z,6.33
2023-03-04T16:41:59.268Z,5.45
2023-03-04T16:42:59.330Z,5.54
2023-03-04T16:43:59.370Z,6.59
2023-03-04T16:44:59.475Z,5.68
2023-03-04T16:45:59.495Z,4.86
2023-03-04T16:46:59.543Z,5.33
2023-03-04T16:47:59.582Z,5.67
2023-03-04T16:48:59.644Z,6.28
2023-03-04T16:49:59.710Z,5.79
2023-03-04T16:50:59.784Z,6.61
2023-03-04T16:51:59.797Z,5.97
2023-03-04T16:52:59.844Z,5.63
2023-03-04T16:53:59.957Z,7.31
2023-03-04T16:54:59.979Z,5.98
2023-03-04T16:56:00.071Z,5.48
2023-03-04T16:57:00.109Z,6.31
2023-03-04T16:58:00.130Z,6.28
2023-03-04T16:59:00.216Z,6.10
2023-03-04T17:00:00.262Z,6.36
2023-03-04T17:01:00.309Z,5.62
2023-03-04T17:02:00.448Z,6.40
2023-03-04T17:03:00.547Z,5.66
2023-03-04T17:04:00.493Z,6.66
2023-03-04T17:05:00.586Z,6.50
2023-03-04T17:06:00.633Z,6.71
2023-03-04T17:07:00.697Z,5.93
2023-03-04T17:08:00.780Z,6.53
2023-03-04T17:09:00.809Z,6.17
2023-03-04T17:10:00.885Z,6.45
2023-03-04T17:11:00.936Z,6.12
2023-03-04T17:13:01.029Z,6.74
2023-03-04T17:14:01.106Z,6.59
2023-03-04T17:15:01.149Z,6.83
2023-03-04T17:16:01.246Z,6.77
2023-03-04T17:17:01.290Z,6.12
2023-03-04T17:18:01.330Z,6.34
2023-03-04T17:19:01.384Z,6.77
2023-03-04T17:20:01.426Z,6.70
2023-03-04T17:21:01.509Z,6.81
2023-03-04T17:22:01.553Z,6.51
2023-03-04T17:23:01.588Z,7.13
2023-03-04T17:24:01.605Z,6.42
2023-03-04T17:25:01.644Z,7.27
2023-03-04T17:26:01.683Z,7.50
2023-03-04T17:27:01.755Z,6.24
2023-03-04T17:28:01.782Z,6.69
2023-03-04T17:29:01.872Z,7.15
2023-03-04T17:30:02.035Z,6.71
2023-03-04T17:31:01.999Z,6.74
2023-03-04T17:32:01.996Z,7.29
2023-03-04T17:33:01.954Z,6.89
2023-03-04T17:34:01.991Z,6.92
2023-03-04T17:35:02.017Z,7.14
2023-03-04T17:36:02.052Z,7.18
2023-03-04T17:37:02.075Z,7.02
2023-03-04T17:38:02.089Z,7.53
2023-03-04T17:39:02.199Z,7.57
2023-03-04T17:40:02.232Z,7.91
2023-03-04T17:41:02.179Z,7.62
2023-03-04T17:42:02.218Z,7.52
2023-03-04T17:43:02.240Z,7.70
2023-03-04T17:44:02.272Z,7.37
2023-03-04T17:45:02.303Z,7.15
2023-03-04T17:46:02.330Z,7.42
2023-03-04T17:49:02.431Z,7.83
2023-03-04T17:50:02.559Z,8.04
2023-03-04T17:51:02.456Z,6.93
2023-03-04T17:52:02.523Z,7.95
2023-03-04T17:53:02.534Z,7.23
2023-03-04T17:54:02.571Z,8.14
2023-03-04T17:55:02.589Z,6.91
2023-03-04T17:56:02.593Z,7.31
2023-03-04T17:57:02.638Z,8.00
2023-03-04T17:58:02.702Z,8.12
2023-03-04T17:59:02.678Z,8.41
2023-03-04T18:00:02.802Z,7.56
2023-03-04T18:01:02.733Z,7.99
2023-03-04T18:02:02.755Z,8.62
2023-03-04T18:03:02.748Z,8.51
2023-03-04T18:04:02.738Z,8.29
2023-03-04T18:05:02.753Z,8.16
2023-03-04T18:06:02.836Z,8.50
2023-03-04T18:07:02.844Z,8.72
2023-03-04T18:08:02.856Z,8.29
2023-03-04T18:09:02.925Z,8.39
2023-03-04T18:10:02.935Z,7.87
2023-03-04T18:11:02.995Z,8.57
2023-03-04T18:12:03.012Z,8.19
2023-03-04T18:14:03.103Z,8.16
2023-03-04T18:15:03.120Z,8.61
2023-03-04T18:16:03.205Z,8.44
2023-03-04T18:21:03.285Z,8.27
2023-03-04T18:22:03.295Z,9.01
2023-03-04T18:23:03.295Z,8.27
2023-03-04T18:24:03.366Z,8.00
2023-03-04T18:25:03.425Z,8.37
2023-03-04T18:26:03.412Z,8.39
2023-03-04T18:27:03.492Z,9.48
2023-03-04T18:28:03.461Z,8.85
2023-03-04T18:29:03.504Z,8.56
2023-03-04T18:30:03.536Z,9.56
2023-03-04T18:31:03.587Z,8.35
2023-03-04T18:32:03.821Z,8.72
2023-03-04T18:33:03.685Z,9.02
2023-03-04T18:34:03.696Z,9.58
2023-03-04T18:35:03.713Z,9.22
2023-03-04T18:36:03.708Z,8.97
2023-03-04T18:37:03.759Z,9.85
2023-03-04T18:38:03.805Z,9.01
2023-03-04T18:39:03.822Z,10.08
2023-03-04T18:40:03.849Z,9.50
2023-03-04T18:41:03.869Z,9.31
2023-03-04T21:50:07.865Z,12.20
2023-03-04T21:51:07.835Z,12.20
2023-03-04T21:52:07.860Z,12.56
2023-03-04T21:53:07.883Z,11.99
2023-03-04T21:54:07.908Z,12.35
2023-03-04T21:55:07.928Z,12.40
2023-03-04T21:56:07.938Z,11.86
2023-03-04T21:57:07.943Z,11.90
2023-03-04T21:58:07.978Z,11.98
2023-03-04T21:59:08.003Z,11.76
2023-03-04T22:00:07.988Z,12.23
2023-03-04T22:01:08.192Z,12.00
2023-03-04T22:02:08.070Z,12.12
2023-03-04T22:03:08.032Z,11.93
2023-03-04T22:04:08.077Z,11.73
2023-03-04T22:05:08.122Z,12.78
2023-03-04T22:06:08.062Z,12.15
2023-03-04T22:07:08.015Z,12.15
2023-03-04T22:08:08.054Z,11.00
2023-03-04T22:09:08.099Z,11.88
2023-03-04T22:10:08.072Z,11.91
2023-03-04T22:11:08.940Z,12.49
2023-03-04T22:12:08.063Z,11.84
2023-03-04T22:13:08.130Z,11.35
2023-03-04T22:14:08.095Z,12.31
2023-03-04T22:15:08.119Z,11.65
2023-03-04T22:16:08.197Z,11.81
2023-03-04T22:17:08.227Z,11.99
2023-03-04T22:18:08.198Z,12.42
2023-03-04T22:19:08.203Z,12.43
2023-03-04T22:20:08.215Z,10.89
2023-03-04T22:21:08.217Z,12.40
2023-03-04T22:22:08.231Z,12.83
2023-03-04T22:23:08.219Z,11.03
2023-03-04T22:24:08.239Z,12.24
2023-03-04T22:25:08.292Z,11.39
2023-03-04T22:26:08.267Z,11.26
2023-03-04T22:27:08.283Z,11.58
2023-03-04T22:28:08.297Z,11.13
2023-03-04T22:29:08.293Z,11.78
2023-03-04T22:30:08.307Z,11.82
2023-03-04T22:31:08.339Z,11.10
2023-03-04T22:32:08.314Z,11.89
2023-03-04T22:33:08.333Z,11.50
2023-03-04T22:34:08.351Z,11.47
2023-03-04T22:35:08.375Z,12.30
2023-03-04T22:36:08.356Z,10.82
2023-03-04T22:37:08.397Z,11.58
2023-03-04T22:38:08.396Z,10.83
2023-03-04T22:39:08.411Z,12.08
2023-03-04T22:40:10.469Z,11.64
2023-03-04T22:41:08.376Z,11.66
2023-03-04T22:42:08.380Z,10.93
2023-03-04T22:43:08.362Z,11.50
2023-03-04T22:44:08.387Z,11.65
2023-03-04T22:45:08.359Z,11.14
2023-03-04T22:46:08.427Z,11.23
2023-03-04T22:47:08.338Z,11.36
2023-03-04T22:48:08.386Z,11.24
2023-03-04T22:49:08.356Z,11.35
2023-03-04T22:50:08.338Z,11.68
2023-03-04T22:51:08.340Z,10.33
2023-03-04T22:52:08.333Z,11.04
2023-03-04T22:53:08.347Z,11.24
2023-03-04T22:54:08.314Z,11.25
2023-03-04T22:55:08.325Z,11.63
2023-03-04T22:56:08.293Z,10.69
2023-03-04T22:57:08.282Z,11.01
2023-03-04T22:58:08.273Z,10.96
2023-03-04T22:59:08.290Z,11.14
2023-03-04T23:00:08.284Z,12.25
2023-03-04T23:01:08.323Z,10.84
2023-03-04T23:02:08.408Z,11.47
2023-03-04T23:03:08.263Z,10.60
2023-03-04T23:04:08.227Z,11.65
2023-03-04T23:05:08.242Z,11.66
2023-03-04T23:06:08.232Z,10.51
2023-03-04T23:07:08.231Z,11.40
2023-03-04T23:08:08.229Z,11.70
2023-03-04T23:09:08.240Z,11.35
2023-03-04T23:10:08.220Z,11.46
2023-03-04T23:11:08.583Z,11.02
2023-03-04T23:12:08.199Z,11.79
2023-03-04T23:13:08.186Z,11.56
2023-03-04T23:14:08.196Z,10.90
2023-03-04T23:15:08.181Z,11.67
2023-03-04T23:16:08.238Z,10.92
2023-03-04T23:17:08.157Z,11.09
2023-03-04T23:18:08.147Z,10.16
2023-03-04T23:19:08.155Z,10.70
2023-03-04T23:20:08.983Z,10.07
2023-03-04T23:21:08.129Z,10.02
2023-03-04T23:22:08.118Z,11.06
2023-03-04T23:23:08.135Z,11.26
2023-03-04T23:24:08.092Z,10.85
2023-03-04T23:25:08.095Z,10.59
2023-03-04T23:26:08.104Z,11.01
2023-03-04T23:27:08.116Z,10.95
2023-03-04T23:28:08.099Z,10.45
2023-03-04T23:29:08.071Z,10.52
2023-03-04T23:30:08.067Z,11.20
2023-03-04T23:31:08.104Z,9.81
2023-03-04T23:32:08.104Z,9.93
2023-03-04T23:33:08.086Z,10.15
2023-03-04T23:34:08.049Z,9.91
2023-03-04T23:35:08.031Z,10.19
2023-03-04T23:36:08.034Z,10.36
2023-03-04T23:37:08.062Z,10.07
2023-03-04T23:38:08.032Z,10.43
2023-03-04T23:39:08.010Z,11.15
2023-03-04T23:40:08.005Z,10.36
2023-03-04T23:41:08.001Z,10.43
2023-03-04T23:42:08.010Z,10.53
2023-03-04T23:43:07.967Z,10.61
2023-03-04T23:44:07.987Z,10.32
2023-03-04T23:45:07.974Z,10.47
2023-03-04T23:46:08.200Z,10.29
2023-03-04T23:47:07.985Z,10.34
2023-03-04T23:48:07.966Z,11.07
2023-03-04T23:49:07.951Z,10.88
2023-03-04T23:50:08.854Z,9.83
2023-03-04T23:51:07.937Z,10.79
2023-03-04T23:52:07.904Z,11.11
2023-03-04T23:53:07.945Z,10.01
2023-03-04T23:54:07.959Z,11.03
2023-03-04T23:55:07.898Z,9.87
2023-03-04T23:56:07.898Z,10.27
2023-03-04T23:57:07.897Z,10.51
2023-03-04T23:58:07.866Z,10.73
2023-03-04T23:59:07.989Z,10.83
